BGKKBGJN

Guest
Details From BGKK - Kulusuk
To BGJN - Ilulissat/Jakobshavn
Flight Number -
Tags generated
Created
Modified
Stats Distance 472 nm / 874 km
Max Altitude 28,700 ft / 8,748 m
Waypoints 9
Social Downloads 0
Likes 0
Share VATSIM

Download

Looking for another format? Having issues loading an existing format? Contact us
Advertisement - Login to hide

Notes

Basic altitude profile: - Ascent Rate: 2500ft/min - Ascent Speed: 250kts - Cruise Altitude: 35000ft - Cruise Speed: 420kts - Descent Rate: 1500ft/min - Descent Speed: 250kts Options: - Use NATs: yes - Use PACOTS: yes - Use low airways: yes - Use high airways: yes

Route

BGKK DA W28 GANGI SUKAK W24 JV BGJN

ID Type Via Altitude Latitude Longitude Leg Dist Tot Dist Heading (true) Name
O BGKK APT - 0 ft / 0 m 65.57361˚ -37.12361˚ - 0 nm - Kulusuk
DA NDB - 700 ft / 213 m 65.57056˚ -37.20694˚ 2 nm 2 nm 265° / 265° KULUSUK NDB
MASIK FIX W28 (AWY-LO) 18,500 ft / 5,639 m 65.96778˚ -39.99528˚ 72 nm 74 nm 290° / 288° -
PEVAR FIX W28 (AWY-LO) 18,500 ft / 5,639 m 66.69917˚ -46.93972˚ 172 nm 247 nm 288° / 282° -
GANGI FIX W28 (AWY-LO) 18,500 ft / 5,639 m 66.89444˚ -49.68083˚ 65 nm 313 nm 282° / 279° -
SUKAK FIX - 28,700 ft / 8,748 m 66.94250˚ -50.48917˚ 19 nm 332 nm 279° / 278° -
KUNUK FIX W24 (AWY-LO) 9,500 ft / 2,896 m 68.50667˚ -50.87278˚ 94 nm 427 nm 355° / 355° -
JV NDB W24 (AWY-LO) 5,000 ft / 1,524 m 69.24142˚ -51.07237˚ 44 nm 471 nm 355° / 354° ILULISSAT NDB
O BGJN APT - 0 ft / 0 m 69.24444˚ -51.06222˚ 0 nm 471 nm 50° / 50° Ilulissat/Jakobshavn

Altitude Profile

Advertisement - Login to hide

Weather


0- 5 10 15 20 25 30 35+ Temperature / ° C

Clouds and Precipitation
Forecast for 2017-12-18 18:00 UTC. Updated an hour ago

Ground ~20,000 ft ~40,000 ft Winds

BGKK

Details ICAO BGKK
Name Kulusuk
Region Greenland
Timezone America/Godthab (UTC-3.0)
Stats Elevation 114 ft / 35 m (AMSL)
Location 65.573608° -37.123608°
Runways 1
Magnetic Variation 22.315° W

METAR

BGKK 181550Z AUTO 08022KT 7000NDV -SN SCT015/// OVC038/// M00/M01 Q0970

Decode

TAF

Not found

Departure Runways

ID Width Length Bearing (true) Bearing (mag) Surface Threshold Offset Overrun Length
11 98 ft / 30 m 3,956 ft / 1,206 m 83.99° 106.31° Gravel 0 ft / 0 m 0 ft / 0 m
29 98 ft / 30 m 3,956 ft / 1,206 m 264.01° 286.33° Gravel 0 ft / 0 m 0 ft / 0 m

BGJN

Details ICAO BGJN (JAV)
Name Ilulissat/Jakobshavn
Region Greenland
Timezone America/Godthab (UTC-3.0)
Stats Elevation 95 ft / 29 m (AMSL)
Location 69.244438° -51.062221°
Runways 1
Magnetic Variation 31.080° W

METAR

BGJN 181550Z 10018KT 6000 -SHSN DRSN SCT008 BKN019 BKN042 M08/M13 Q0979

Decode

TAF

Not found

Destination Runways

ID Width Length Bearing (true) Bearing (mag) Surface Threshold Offset Overrun Length
08 98 ft / 30 m 2,773 ft / 845 m 34.99° 66.07° Asphalt 0 ft / 0 m 0 ft / 0 m
26 98 ft / 30 m 2,773 ft / 845 m 215.01° 246.09° Asphalt 0 ft / 0 m 0 ft / 0 m